createdAt,value
2023-04-16T00:01:44.251Z,71.71
2023-04-16T00:04:12.443Z,72.25
2023-04-16T00:06:40.479Z,72.05
2023-04-16T00:09:08.641Z,72.48
2023-04-16T00:11:36.984Z,71.95
2023-04-16T00:14:06.350Z,72.09
2023-04-16T00:16:34.689Z,72.34
2023-04-16T00:19:02.664Z,72.26
2023-04-16T00:21:31.213Z,72.23
2023-04-16T00:23:59.182Z,72.01
2023-04-16T00:26:27.093Z,72.11
2023-04-16T00:28:55.019Z,72.35
2023-04-16T00:31:29.884Z,72.60
2023-04-16T00:33:57.834Z,72.43
2023-04-16T00:36:27.105Z,72.70
2023-04-16T00:38:55.625Z,72.48
2023-04-16T00:41:23.746Z,72.39
2023-04-16T00:43:51.850Z,72.22
2023-04-16T00:46:21.339Z,72.24
2023-04-16T00:48:52.249Z,72.63
2023-04-16T00:51:20.600Z,72.57
2023-04-16T00:53:48.718Z,72.23
2023-04-16T00:56:17.768Z,72.46
2023-04-16T00:58:45.998Z,72.36
2023-04-16T01:01:15.131Z,72.71
2023-04-16T01:03:46.234Z,72.36
2023-04-16T01:06:16.160Z,72.60
2023-04-16T01:08:44.271Z,72.50
2023-04-16T01:11:12.521Z,72.58
2023-04-16T01:13:40.426Z,72.64
2023-04-16T01:16:08.847Z,72.77
2023-04-16T01:18:37.260Z,72.80
2023-04-16T01:21:07.222Z,73.04
2023-04-16T01:23:35.265Z,72.76
2023-04-16T01:26:03.258Z,73.31
2023-04-16T01:28:31.163Z,72.74
2023-04-16T01:30:59.118Z,72.83
2023-04-16T01:33:27.134Z,73.23
2023-04-16T01:35:55.039Z,73.66
2023-04-16T01:38:24.395Z,72.79
2023-04-16T01:40:57.497Z,73.22
2023-04-16T01:43:25.420Z,73.14
2023-04-16T01:45:53.856Z,73.31
2023-04-16T01:48:21.908Z,73.32
2023-04-16T01:50:49.804Z,73.63
2023-04-16T01:53:17.718Z,73.44
2023-04-16T01:55:48.225Z,73.36
2023-04-16T01:58:16.138Z,73.32
2023-04-16T02:00:44.085Z,73.28
2023-04-16T02:03:12.248Z,73.61
2023-04-16T02:05:40.256Z,73.47
2023-04-16T02:08:08.164Z,73.01
2023-04-16T02:10:36.091Z,73.46
2023-04-16T02:13:05.358Z,73.15
2023-04-16T02:15:33.248Z,73.60
2023-04-16T02:18:01.203Z,73.67
2023-04-16T02:20:29.126Z,73.40
2023-04-16T02:22:57.027Z,73.82
2023-04-16T02:25:25.159Z,73.44
2023-04-16T02:27:53.083Z,73.90
2023-04-16T02:30:22.644Z,74.08
2023-04-16T02:32:50.886Z,73.91
2023-04-16T02:35:18.855Z,73.61
2023-04-16T02:37:46.785Z,73.42
2023-04-16T02:40:14.868Z,73.54
2023-04-16T02:42:42.819Z,73.92
2023-04-16T02:45:12.492Z,73.67
2023-04-16T02:47:41.849Z,73.81
2023-04-16T02:50:10.180Z,73.72
2023-04-16T02:52:38.177Z,74.08
2023-04-16T02:55:06.740Z,73.77
2023-04-16T02:57:34.850Z,73.81
2023-04-16T03:00:04.511Z,74.07
2023-04-16T03:02:32.713Z,73.97
2023-04-16T03:05:02.045Z,74.16
2023-04-16T03:07:30.047Z,74.12
2023-04-16T03:09:58.018Z,73.85
2023-04-16T03:12:25.912Z,74.31
2023-04-16T03:14:53.824Z,73.87
2023-04-16T03:17:21.758Z,74.24
2023-04-16T03:19:50.877Z,74.37
2023-04-16T03:22:20.252Z,74.06
2023-04-16T03:24:48.212Z,73.96
2023-04-16T03:27:16.321Z,73.64
2023-04-16T03:29:44.211Z,73.66
2023-04-16T03:32:12.783Z,73.94
2023-04-16T03:34:40.900Z,74.51
2023-04-16T03:37:12.085Z,74.29
2023-04-16T03:39:41.546Z,73.73
2023-04-16T03:42:09.486Z,73.77
2023-04-16T03:44:37.429Z,73.97
2023-04-16T03:47:05.333Z,73.71
2023-04-16T03:49:33.233Z,74.33
2023-04-16T03:52:01.145Z,73.64
2023-04-16T03:54:29.031Z,73.73
2023-04-16T03:56:58.387Z,74.15
2023-04-16T03:59:26.298Z,73.50
2023-04-16T04:01:54.232Z,74.22
2023-04-16T04:04:22.215Z,73.89
2023-04-16T04:06:50.199Z,74.53
2023-04-16T04:09:18.083Z,73.74
2023-04-16T04:11:45.991Z,74.08
2023-04-16T04:14:15.400Z,74.47
2023-04-16T04:16:43.406Z,75.03
2023-04-16T04:19:11.666Z,73.97
2023-04-16T04:21:40.110Z,73.69
2023-04-16T04:24:08.017Z,73.74
2023-04-16T04:26:35.947Z,74.10
2023-04-16T04:29:03.906Z,74.36
2023-04-16T04:31:33.219Z,73.54
2023-04-16T04:34:01.110Z,73.62
2023-04-16T04:36:29.043Z,73.40
2023-04-16T04:38:56.924Z,73.93
2023-04-16T04:41:26.921Z,73.54
2023-04-16T04:43:54.844Z,74.42
2023-04-16T04:46:22.800Z,74.36
2023-04-16T04:48:52.119Z,73.92
2023-04-16T04:51:19.999Z,74.90
2023-04-16T04:53:47.894Z,73.74
2023-04-16T04:56:15.955Z,73.43
2023-04-16T04:58:44.253Z,74.11
2023-04-16T05:01:12.237Z,73.25
2023-04-16T05:03:40.200Z,74.31
2023-04-16T05:06:09.672Z,75.77
2023-04-16T05:08:37.631Z,73.62
2023-04-16T05:11:05.772Z,73.43
2023-04-16T05:13:33.653Z,73.78
2023-04-16T05:16:01.654Z,73.42
2023-04-16T05:18:29.532Z,73.37
2023-04-16T05:20:57.460Z,73.62
2023-04-16T05:23:26.720Z,74.91
2023-04-16T05:25:54.636Z,73.56
2023-04-16T05:28:22.570Z,74.94
2023-04-16T05:30:50.529Z,73.83
2023-04-16T05:33:18.471Z,73.80
2023-04-16T05:35:46.405Z,74.31
2023-04-16T05:38:14.309Z,73.46
2023-04-16T05:40:43.579Z,73.67
2023-04-16T05:43:11.594Z,74.51
2023-04-16T05:45:41.373Z,73.85
2023-04-16T05:48:10.083Z,73.94
2023-04-16T05:50:38.307Z,74.46
2023-04-16T05:53:07.400Z,74.46
2023-04-16T05:55:36.048Z,74.27
2023-04-16T05:58:05.428Z,74.04
2023-04-16T06:00:34.074Z,73.54
2023-04-16T06:03:02.198Z,73.62
2023-04-16T06:05:30.642Z,73.93
2023-04-16T06:07:58.615Z,74.44
2023-04-16T06:10:26.555Z,73.16
2023-04-16T06:12:54.460Z,73.01
2023-04-16T06:15:23.708Z,72.77
2023-04-16T06:17:51.701Z,73.75
2023-04-16T06:20:19.684Z,73.51
2023-04-16T06:22:47.562Z,73.53
2023-04-16T06:25:16.957Z,73.09
2023-04-16T06:27:46.048Z,74.00
2023-04-16T06:30:14.714Z,73.79
2023-04-16T06:32:44.532Z,73.19
2023-04-16T06:35:12.486Z,72.92
2023-04-16T06:37:40.414Z,73.16
2023-04-16T06:40:09.447Z,73.05
2023-04-16T06:42:37.416Z,72.68
2023-04-16T06:45:06.082Z,72.85
2023-04-16T06:47:34.048Z,72.89
2023-04-16T06:50:03.416Z,72.82
2023-04-16T06:52:31.502Z,72.47
2023-04-16T06:54:59.867Z,72.25
2023-04-16T06:57:27.765Z,72.67
2023-04-16T06:59:55.716Z,72.44
2023-04-16T07:02:23.754Z,72.20
2023-04-16T07:04:52.396Z,72.36
2023-04-16T07:07:21.743Z,72.94
2023-04-16T07:09:49.654Z,72.65
2023-04-16T07:12:17.566Z,74.53
2023-04-16T07:14:45.676Z,73.42
2023-04-16T07:17:13.560Z,72.53
2023-04-16T07:19:41.594Z,73.85
2023-04-16T07:22:09.569Z,73.48
2023-04-16T07:24:39.264Z,72.27
2023-04-16T07:27:07.157Z,72.27
2023-04-16T07:29:35.090Z,74.00
2023-04-16T07:32:03.021Z,72.31
2023-04-16T07:34:31.087Z,72.04
2023-04-16T07:36:59.038Z,72.01
2023-04-16T07:40:06.692Z,72.11
2023-04-16T07:42:34.621Z,72.28
2023-04-16T07:45:02.521Z,73.36
2023-04-16T07:47:30.472Z,73.00
2023-04-16T07:49:58.360Z,72.27
2023-04-16T07:52:26.755Z,72.51
2023-04-16T07:54:56.082Z,72.42
2023-04-16T07:57:23.978Z,73.62
2023-04-16T07:59:51.932Z,72.48
2023-04-16T08:02:19.963Z,72.02
2023-04-16T08:04:48.066Z,72.01
2023-04-16T08:07:16.142Z,72.01
2023-04-16T08:09:50.069Z,73.75
2023-04-16T08:12:19.557Z,72.09
2023-04-16T08:14:47.758Z,71.78
2023-04-16T08:17:15.769Z,71.92
2023-04-16T08:19:43.876Z,71.87
2023-04-16T08:22:12.014Z,71.60
2023-04-16T08:24:39.934Z,71.80
2023-04-16T08:27:17.693Z,71.90
2023-04-16T08:29:48.352Z,71.47
2023-04-16T08:32:16.338Z,71.26
2023-04-16T08:34:44.260Z,72.00
2023-04-16T08:37:12.166Z,71.25
2023-04-16T08:39:40.076Z,71.78
2023-04-16T08:42:14.454Z,72.40
2023-04-16T08:44:46.383Z,71.51
2023-04-16T08:47:17.106Z,71.36
2023-04-16T08:49:45.905Z,70.89
2023-04-16T08:52:20.792Z,71.18
2023-04-16T08:54:57.087Z,71.27
2023-04-16T08:57:25.452Z,70.52
2023-04-16T08:59:54.758Z,71.20
2023-04-16T09:02:24.479Z,70.34
2023-04-16T09:04:55.313Z,70.36
2023-04-16T09:07:23.339Z,70.51
2023-04-16T09:09:53.246Z,70.20
2023-04-16T09:12:23.345Z,70.22
2023-04-16T09:14:51.369Z,70.17
2023-04-16T09:17:19.722Z,69.87
2023-04-16T09:19:49.080Z,70.68
2023-04-16T09:22:17.576Z,70.15
2023-04-16T09:24:45.458Z,70.18
2023-04-16T09:27:13.720Z,70.14
2023-04-16T09:29:42.583Z,71.20
2023-04-16T09:32:11.520Z,70.80
2023-04-16T09:34:59.487Z,70.46
2023-04-16T09:37:29.693Z,70.60
2023-04-16T09:40:00.079Z,70.31
2023-04-16T09:42:29.630Z,70.22
2023-04-16T09:45:00.314Z,70.44
2023-04-16T09:47:42.577Z,69.77
2023-04-16T09:50:18.128Z,69.62
2023-04-16T09:52:49.684Z,69.12
2023-04-16T09:55:19.327Z,69.67
2023-04-16T09:57:48.843Z,68.27
2023-04-16T10:00:19.995Z,67.95
2023-04-16T10:02:50.628Z,68.19
2023-04-16T10:05:21.337Z,66.18
2023-04-16T10:07:49.895Z,66.77
2023-04-16T10:10:18.145Z,67.26
2023-04-16T10:12:46.460Z,67.07
2023-04-16T10:15:14.540Z,67.27
2023-04-16T10:17:42.526Z,67.63
2023-04-16T10:20:10.969Z,67.49
2023-04-16T10:22:40.486Z,67.97
2023-04-16T10:25:09.246Z,67.66
2023-04-16T10:27:38.298Z,67.78
2023-04-16T10:30:07.818Z,67.61
2023-04-16T10:32:36.146Z,67.56
2023-04-16T10:35:05.134Z,67.65
2023-04-16T10:37:33.223Z,67.50
2023-04-16T10:40:02.778Z,67.76
2023-04-16T10:42:30.801Z,67.48
2023-04-16T10:45:01.273Z,67.21
2023-04-16T10:47:30.518Z,67.76
2023-04-16T10:49:59.454Z,67.79
2023-04-16T10:52:30.721Z,67.70
2023-04-16T10:55:02.048Z,67.77
2023-04-16T10:57:30.902Z,67.06
2023-04-16T10:59:59.394Z,67.75
2023-04-16T11:02:30.604Z,67.78
2023-04-16T11:04:58.886Z,67.64
2023-04-16T11:07:34.930Z,67.41
2023-04-16T11:10:05.439Z,67.10
2023-04-16T11:12:37.561Z,67.42
2023-04-16T11:15:07.350Z,66.64
2023-04-16T11:17:39.166Z,67.96
2023-04-16T11:20:19.151Z,68.27
2023-04-16T11:22:49.593Z,68.43
2023-04-16T11:25:22.684Z,68.70
2023-04-16T11:27:50.866Z,68.00
2023-04-16T11:30:19.951Z,67.80
2023-04-16T11:32:48.024Z,68.10
2023-04-16T11:35:18.181Z,68.42
2023-04-16T11:37:46.847Z,68.54
2023-04-16T11:40:15.168Z,68.04
2023-04-16T11:42:44.983Z,67.74
2023-04-16T11:45:14.093Z,67.87
2023-04-16T11:47:46.096Z,68.11
2023-04-16T11:50:21.701Z,68.02
2023-04-16T11:52:50.049Z,67.38
2023-04-16T11:55:18.202Z,67.78
2023-04-16T11:57:47.921Z,67.45
2023-04-16T12:00:16.401Z,67.84
2023-04-16T12:02:45.363Z,67.49
2023-04-16T12:05:30.799Z,68.11
2023-04-16T12:07:59.548Z,68.46
2023-04-16T12:10:27.744Z,68.74
2023-04-16T12:12:58.150Z,67.75
2023-04-16T12:15:44.840Z,67.58
2023-04-16T12:18:12.934Z,68.08
2023-04-16T12:20:42.714Z,67.48
2023-04-16T12:23:10.753Z,67.53
2023-04-16T12:25:38.692Z,67.35
2023-04-16T12:28:08.159Z,67.52
2023-04-16T12:30:36.196Z,67.35
2023-04-16T12:33:17.316Z,67.41
2023-04-16T12:35:45.197Z,67.33
2023-04-16T12:38:15.438Z,67.79
2023-04-16T12:40:43.953Z,68.05
2023-04-16T12:43:13.314Z,67.21
2023-04-16T12:45:41.900Z,67.30
2023-04-16T12:48:10.294Z,67.33
2023-04-16T12:50:39.682Z,67.05
2023-04-16T12:53:07.699Z,67.39
2023-04-16T12:55:35.660Z,67.39
2023-04-16T12:58:03.562Z,67.46
2023-04-16T13:00:32.898Z,67.70
2023-04-16T13:03:01.061Z,67.22
2023-04-16T13:05:29.146Z,67.15
2023-04-16T13:07:57.082Z,67.15
2023-04-16T13:10:25.027Z,67.07
2023-04-16T13:12:53.033Z,67.08
2023-04-16T13:15:21.020Z,67.13
2023-04-16T13:17:50.353Z,66.90
2023-04-16T13:20:18.499Z,66.34
2023-04-16T13:22:46.419Z,67.26
2023-04-16T13:25:14.374Z,66.64
2023-04-16T13:27:42.302Z,66.79
2023-04-16T13:30:11.086Z,66.35
2023-04-16T13:32:39.108Z,66.44
2023-04-16T13:35:09.368Z,65.97
2023-04-16T13:37:38.096Z,66.52
2023-04-16T13:40:07.395Z,65.95
2023-04-16T13:42:35.511Z,66.21
2023-04-16T13:45:03.629Z,65.97
2023-04-16T13:47:31.568Z,66.16
2023-04-16T13:49:59.507Z,66.40
2023-04-16T13:52:28.797Z,65.96
2023-04-16T13:54:57.839Z,66.14
2023-04-16T13:57:27.921Z,66.27
2023-04-16T13:59:56.612Z,65.91
2023-04-16T14:02:26.053Z,66.06
2023-04-16T14:04:54.139Z,66.34
2023-04-16T14:07:27.051Z,66.04
2023-04-16T14:09:56.393Z,65.91
2023-04-16T14:12:24.309Z,66.10
2023-04-16T14:14:52.239Z,65.83
2023-04-16T14:17:20.212Z,65.49
2023-04-16T14:19:48.207Z,65.85
2023-04-16T14:22:17.883Z,65.57
2023-04-16T14:24:46.214Z,65.37
2023-04-16T14:27:16.973Z,65.34
2023-04-16T14:29:46.495Z,65.07
2023-04-16T14:32:14.710Z,65.09
2023-04-16T14:34:42.715Z,65.13
2023-04-16T14:37:11.010Z,65.07
2023-04-16T14:39:39.359Z,65.22
2023-04-16T14:42:07.464Z,65.48
2023-04-16T14:44:36.727Z,65.52
2023-04-16T14:47:04.662Z,65.80
2023-04-16T14:49:32.893Z,65.71
2023-04-16T14:52:02.245Z,65.81
2023-04-16T14:54:30.192Z,65.98
2023-04-16T14:56:58.382Z,66.07
2023-04-16T14:59:26.302Z,66.53
2023-04-16T15:01:56.680Z,66.59
2023-04-16T15:04:25.689Z,66.64
2023-04-16T15:06:55.595Z,66.75
2023-04-16T15:09:23.677Z,66.78
2023-04-16T15:11:51.733Z,66.90
2023-04-16T15:14:19.955Z,67.16
2023-04-16T15:16:48.326Z,67.01
2023-04-16T15:19:17.659Z,66.78
2023-04-16T15:21:47.578Z,67.10
2023-04-16T15:24:16.845Z,66.40
2023-04-16T15:26:45.289Z,66.60
2023-04-16T15:29:13.215Z,67.07
2023-04-16T15:31:41.135Z,66.80
2023-04-16T15:34:09.397Z,66.67
2023-04-16T15:36:38.914Z,66.82
2023-04-16T15:39:06.868Z,66.23
2023-04-16T15:41:37.017Z,66.96
2023-04-16T15:44:05.052Z,66.81
2023-04-16T15:46:33.133Z,66.81
2023-04-16T15:49:01.065Z,66.23
2023-04-16T15:51:31.538Z,66.28
2023-04-16T15:54:00.890Z,67.09
2023-04-16T15:56:28.924Z,67.05
2023-04-16T15:58:56.811Z,67.15
2023-04-16T16:01:24.870Z,66.90
2023-04-16T16:03:52.985Z,66.69
2023-04-16T16:06:21.112Z,67.08
2023-04-16T16:08:50.185Z,67.65
2023-04-16T16:11:19.535Z,67.93
2023-04-16T16:13:47.490Z,67.32
2023-04-16T16:16:16.147Z,67.16
2023-04-16T16:18:44.100Z,66.96
2023-04-16T16:21:12.163Z,66.34
2023-04-16T16:23:40.067Z,66.89
2023-04-16T16:26:07.954Z,67.21
2023-04-16T16:28:37.926Z,66.74
2023-04-16T16:31:07.168Z,67.03
2023-04-16T16:33:35.116Z,67.65
2023-04-16T16:36:03.031Z,67.25
2023-04-16T16:38:31.234Z,67.24
2023-04-16T16:40:59.175Z,67.44
2023-04-16T16:43:27.191Z,67.48
2023-04-16T16:45:56.505Z,67.27
2023-04-16T16:48:24.726Z,67.42
2023-04-16T16:50:52.866Z,67.39
2023-04-16T16:53:20.780Z,67.68
2023-04-16T16:55:48.686Z,67.73
2023-04-16T16:58:16.616Z,67.41
2023-04-16T17:00:44.701Z,67.40
2023-04-16T17:03:14.592Z,67.24
2023-04-16T17:05:42.774Z,67.67
2023-04-16T17:08:10.690Z,68.15
2023-04-16T17:10:38.734Z,67.54
2023-04-16T17:13:06.736Z,67.92
2023-04-16T17:15:34.758Z,68.15
2023-04-16T17:18:02.694Z,68.31
2023-04-16T17:20:32.975Z,68.20
2023-04-16T17:23:00.915Z,68.45
2023-04-16T17:25:29.013Z,68.32
2023-04-16T17:27:56.920Z,68.98
2023-04-16T17:30:26.005Z,68.57
2023-04-16T17:32:53.997Z,68.60
2023-04-16T17:35:22.784Z,68.72
2023-04-16T17:37:52.410Z,69.36
2023-04-16T17:40:20.521Z,68.57
2023-04-16T17:42:49.959Z,68.88
2023-04-16T17:45:17.924Z,69.33
2023-04-16T17:47:45.860Z,68.99
2023-04-16T17:50:13.840Z,68.82
2023-04-16T17:52:42.038Z,69.21
2023-04-16T17:55:12.365Z,69.17
2023-04-16T17:57:40.326Z,69.18
2023-04-16T18:00:11.397Z,69.01
2023-04-16T18:02:40.907Z,68.96
2023-04-16T18:05:09.571Z,69.05
2023-04-16T18:07:38.971Z,69.17
2023-04-16T18:10:08.315Z,68.91
2023-04-16T18:12:37.670Z,69.33
2023-04-16T18:15:07.161Z,69.28
2023-04-16T18:17:35.132Z,69.22
2023-04-16T18:20:05.479Z,68.97
2023-04-16T18:22:33.415Z,68.87
2023-04-16T18:25:01.477Z,68.80
2023-04-16T18:27:32.414Z,68.74
2023-04-16T18:30:03.959Z,68.87
2023-04-16T18:32:33.245Z,69.23
2023-04-16T18:35:01.573Z,69.31
2023-04-16T18:37:31.462Z,68.93
2023-04-16T18:39:59.416Z,69.01
2023-04-16T18:42:29.424Z,69.41
2023-04-16T18:44:59.345Z,69.31
2023-04-16T18:47:28.895Z,69.60
2023-04-16T18:49:56.799Z,69.23
2023-04-16T18:52:24.720Z,69.40
2023-04-16T18:54:52.818Z,69.37
2023-04-16T18:57:20.725Z,69.59
2023-04-16T18:59:48.869Z,69.48
2023-04-16T19:02:16.867Z,69.54
2023-04-16T19:04:46.412Z,69.77
2023-04-16T19:07:14.294Z,69.64
2023-04-16T19:09:42.266Z,69.65
2023-04-16T19:12:10.185Z,69.62
2023-04-16T19:14:38.197Z,69.56
2023-04-16T19:17:06.140Z,69.76
2023-04-16T19:19:34.113Z,69.77
2023-04-16T19:22:03.410Z,70.07
2023-04-16T19:24:33.053Z,69.91
2023-04-16T19:27:02.681Z,70.39
2023-04-16T19:29:34.109Z,70.01
2023-04-16T19:32:02.483Z,69.96
2023-04-16T19:34:30.969Z,69.83
2023-04-16T19:36:58.887Z,69.83
2023-04-16T19:39:28.764Z,69.76
2023-04-16T19:41:56.764Z,69.87
2023-04-16T19:44:25.331Z,69.87
2023-04-16T19:46:53.255Z,69.78
2023-04-16T19:49:21.168Z,69.98
2023-04-16T19:51:49.193Z,70.05
2023-04-16T19:54:17.601Z,70.00
2023-04-16T19:56:46.971Z,69.90
2023-04-16T19:59:14.890Z,69.92
2023-04-16T20:01:42.921Z,69.98
2023-04-16T20:04:11.163Z,70.62
2023-04-16T20:06:39.202Z,70.86
2023-04-16T20:09:07.103Z,69.99
2023-04-16T20:11:35.768Z,70.01
2023-04-16T20:14:05.052Z,70.00
2023-04-16T20:16:33.704Z,69.87
2023-04-16T20:19:04.200Z,69.92
2023-04-16T20:21:33.804Z,69.73
2023-04-16T20:24:01.809Z,69.98
2023-04-16T20:26:33.738Z,70.06
2023-04-16T20:29:01.738Z,69.77
2023-04-16T20:31:31.211Z,69.88
2023-04-16T20:33:59.330Z,69.67
2023-04-16T20:36:27.933Z,69.77
2023-04-16T20:38:55.844Z,69.91
2023-04-16T20:41:25.257Z,70.19
2023-04-16T20:43:54.035Z,70.14
2023-04-16T20:46:24.301Z,70.44
2023-04-16T20:48:53.832Z,70.32
2023-04-16T20:51:21.713Z,70.35
2023-04-16T20:53:52.151Z,70.06
2023-04-16T20:56:20.603Z,70.31
2023-04-16T20:58:50.639Z,70.10
2023-04-16T21:01:18.683Z,70.23
2023-04-16T21:03:46.987Z,70.64
2023-04-16T21:06:17.777Z,70.22
2023-04-16T21:08:47.639Z,70.16
2023-04-16T21:11:15.673Z,70.16
2023-04-16T21:13:45.831Z,70.31
2023-04-16T21:16:13.787Z,70.80
2023-04-16T21:18:41.745Z,70.27
2023-04-16T21:21:09.674Z,70.38
2023-04-16T21:23:38.936Z,70.39
2023-04-16T21:26:08.438Z,70.46
2023-04-16T21:28:36.363Z,70.32
2023-04-16T21:31:04.295Z,70.55
2023-04-16T21:33:32.223Z,70.45
2023-04-16T21:36:37.420Z,70.44
2023-04-16T21:39:06.823Z,70.32
2023-04-16T21:41:34.673Z,70.46
2023-04-16T21:44:02.595Z,71.71
2023-04-16T21:46:30.643Z,70.74
2023-04-16T21:48:58.672Z,70.60
2023-04-16T21:51:30.179Z,70.72
2023-04-16T21:53:58.160Z,70.94
2023-04-16T21:56:27.483Z,70.62
2023-04-16T21:59:04.751Z,70.75
2023-04-16T22:01:32.765Z,70.98
2023-04-16T22:04:02.160Z,70.70
2023-04-16T22:06:30.124Z,70.62
2023-04-16T22:08:58.915Z,70.77
2023-04-16T22:11:30.685Z,70.84
2023-04-16T22:13:58.563Z,71.04
2023-04-16T22:16:26.698Z,70.77
2023-04-16T22:18:55.037Z,71.39
2023-04-16T22:21:22.973Z,71.01
2023-04-16T22:23:50.950Z,71.07
2023-04-16T22:26:21.653Z,70.99
2023-04-16T22:28:53.308Z,71.50
2023-04-16T22:31:30.564Z,70.99
2023-04-16T22:33:58.594Z,70.94
2023-04-16T22:36:26.878Z,71.27
2023-04-16T22:38:54.939Z,71.06
2023-04-16T22:41:22.911Z,71.12
2023-04-16T22:43:52.560Z,70.99
2023-04-16T22:46:22.365Z,71.24
2023-04-16T22:48:51.206Z,71.07
2023-04-16T22:51:19.075Z,71.19
2023-04-16T22:53:47.026Z,71.27
2023-04-16T22:56:14.915Z,71.57
2023-04-16T22:58:42.869Z,71.56
2023-04-16T23:01:12.254Z,71.31
2023-04-16T23:03:40.278Z,71.41
2023-04-16T23:06:08.325Z,71.23
2023-04-16T23:08:36.390Z,71.61
2023-04-16T23:11:04.299Z,71.41
2023-04-16T23:13:32.216Z,71.34
2023-04-16T23:16:00.238Z,71.30
2023-04-16T23:18:29.531Z,71.25
2023-04-16T23:20:57.410Z,71.31
2023-04-16T23:23:25.574Z,71.39
2023-04-16T23:25:54.228Z,71.56
2023-04-16T23:28:22.454Z,71.20
2023-04-16T23:30:52.866Z,71.36
2023-04-16T23:33:20.985Z,71.62
2023-04-16T23:35:50.267Z,71.70
2023-04-16T23:38:18.208Z,71.49
2023-04-16T23:40:46.117Z,71.47
2023-04-16T23:43:14.039Z,71.55
2023-04-16T23:45:42.042Z,71.60
2023-04-16T23:48:10.104Z,71.49
2023-04-16T23:50:38.044Z,72.09
2023-04-16T23:53:07.348Z,71.83
2023-04-16T23:55:35.256Z,71.68
2023-04-16T23:58:03.175Z,71.89
